createdAt,value
2022-09-17T00:01:30.822Z,25.16
2022-09-17T00:03:57.142Z,25.15
2022-09-17T00:06:23.511Z,25.16
2022-09-17T00:08:49.864Z,25.15
2022-09-17T00:11:16.254Z,25.15
2022-09-17T00:13:42.614Z,25.16
2022-09-17T00:16:09.000Z,25.16
2022-09-17T00:18:35.330Z,25.15
2022-09-17T00:21:01.690Z,25.14
2022-09-17T00:23:28.046Z,25.14
2022-09-17T00:25:54.410Z,25.14
2022-09-17T00:28:20.761Z,25.13
2022-09-17T00:30:47.123Z,25.12
2022-09-17T00:33:13.486Z,25.12
2022-09-17T00:35:39.872Z,25.12
2022-09-17T00:38:06.229Z,25.12
2022-09-17T00:40:32.648Z,25.12
2022-09-17T00:42:58.922Z,25.14
2022-09-17T00:45:25.268Z,25.12
2022-09-17T00:47:51.612Z,25.11
2022-09-17T00:50:17.949Z,25.13
2022-09-17T00:52:44.286Z,25.12
2022-09-17T00:55:11.866Z,25.14
2022-09-17T00:57:36.974Z,25.13
2022-09-17T01:00:03.323Z,25.12
2022-09-17T01:02:29.746Z,25.11
2022-09-17T01:04:56.043Z,25.13
2022-09-17T01:07:22.417Z,25.11
2022-09-17T01:09:48.790Z,25.13
2022-09-17T01:12:15.129Z,25.11
2022-09-17T01:14:41.471Z,25.10
2022-09-17T01:17:07.799Z,25.10
2022-09-17T01:19:34.143Z,25.10
2022-09-17T01:22:00.478Z,25.10
2022-09-17T01:24:26.821Z,25.10
2022-09-17T01:26:53.186Z,25.10
2022-09-17T01:29:19.530Z,25.09
2022-09-17T01:31:45.891Z,25.11
2022-09-17T01:34:12.271Z,25.08
2022-09-17T01:36:38.611Z,25.09
2022-09-17T01:39:04.956Z,25.07
2022-09-17T01:41:31.293Z,25.08
2022-09-17T01:43:57.631Z,25.08
2022-09-17T01:46:23.982Z,25.10
2022-09-17T01:48:50.306Z,25.10
2022-09-17T01:51:16.639Z,25.08
2022-09-17T01:53:42.972Z,25.06
2022-09-17T01:56:09.344Z,25.06
2022-09-17T01:58:35.684Z,25.04
2022-09-17T02:01:02.096Z,25.06
2022-09-17T02:03:28.395Z,25.05
2022-09-17T02:05:54.738Z,25.05
2022-09-17T02:08:21.075Z,25.05
2022-09-17T02:10:47.417Z,25.07
2022-09-17T02:13:13.758Z,25.07
2022-09-17T02:15:40.094Z,25.05
2022-09-17T02:18:06.430Z,25.05
2022-09-17T02:20:32.775Z,25.06
2022-09-17T02:22:59.108Z,25.07
2022-09-17T02:25:25.482Z,25.05
2022-09-17T02:27:51.817Z,25.03
2022-09-17T02:30:18.158Z,25.05
2022-09-17T02:32:44.498Z,25.04
2022-09-17T02:35:10.836Z,25.04
2022-09-17T02:37:37.173Z,25.00
2022-09-17T02:40:03.588Z,25.02
2022-09-17T02:42:29.855Z,25.01
2022-09-17T02:44:56.192Z,25.01
2022-09-17T02:47:22.528Z,25.03
2022-09-17T02:49:48.870Z,25.03
2022-09-17T02:52:15.203Z,25.05
2022-09-17T02:54:41.545Z,25.04
2022-09-17T02:57:07.876Z,25.04
2022-09-17T02:59:34.220Z,25.04
2022-09-17T03:02:00.629Z,25.02
2022-09-17T03:04:26.946Z,25.03
2022-09-17T03:06:53.269Z,25.03
2022-09-17T03:09:19.613Z,25.02
2022-09-17T03:11:45.947Z,25.03
2022-09-17T03:16:54.552Z,25.00
2022-09-17T03:19:20.890Z,25.02
2022-09-17T03:21:47.229Z,25.01
2022-09-17T03:24:13.562Z,25.02
2022-09-17T03:26:39.916Z,25.01
2022-09-17T03:29:06.239Z,25.01
2022-09-17T03:31:32.677Z,25.01
2022-09-17T03:33:58.913Z,25.01
2022-09-17T03:36:25.258Z,25.01
2022-09-17T03:38:51.625Z,25.00
2022-09-17T03:41:17.978Z,25.00
2022-09-17T03:43:44.347Z,25.01
2022-09-17T03:46:10.703Z,25.02
2022-09-17T03:48:36.997Z,25.00
2022-09-17T03:51:03.330Z,24.99
2022-09-17T03:53:29.665Z,24.99
2022-09-17T03:55:56.005Z,25.00
2022-09-17T03:58:22.342Z,24.99
2022-09-17T04:00:48.690Z,24.99
2022-09-17T04:03:15.046Z,24.99
2022-09-17T04:05:41.391Z,25.01
2022-09-17T04:08:07.728Z,25.01
2022-09-17T04:10:34.072Z,24.98
2022-09-17T04:13:00.402Z,24.99
2022-09-17T04:15:26.749Z,24.99
2022-09-17T04:17:53.080Z,24.99
2022-09-17T04:20:19.480Z,24.99
2022-09-17T04:22:45.811Z,24.99
2022-09-17T04:25:12.155Z,24.98
2022-09-17T04:27:38.489Z,25.00
2022-09-17T04:30:04.826Z,24.99
2022-09-17T04:32:31.165Z,25.02
2022-09-17T04:34:57.501Z,25.01
2022-09-17T04:37:23.832Z,25.01
2022-09-17T04:39:50.221Z,25.01
2022-09-17T04:42:16.507Z,24.99
2022-09-17T04:44:42.856Z,25.02
2022-09-17T04:47:09.190Z,25.00
2022-09-17T04:49:35.561Z,24.99
2022-09-17T04:52:01.893Z,25.01
2022-09-17T04:54:28.236Z,25.01
2022-09-17T04:56:54.570Z,25.01
2022-09-17T04:59:20.911Z,24.99
2022-09-17T05:01:47.372Z,25.01
2022-09-17T05:04:13.623Z,24.99
2022-09-17T05:06:39.963Z,25.00
2022-09-17T05:09:06.303Z,25.00
2022-09-17T05:11:32.648Z,24.98
2022-09-17T05:13:58.986Z,24.96
2022-09-17T05:16:25.366Z,24.96
2022-09-17T05:18:51.666Z,24.96
2022-09-17T05:21:17.994Z,24.92
2022-09-17T05:23:44.333Z,24.94
2022-09-17T05:26:10.675Z,24.93
2022-09-17T05:28:37.018Z,24.93
2022-09-17T05:31:03.400Z,24.91
2022-09-17T05:33:29.698Z,24.88
2022-09-17T05:35:56.024Z,24.88
2022-09-17T05:38:24.576Z,24.89
2022-09-17T05:40:50.917Z,24.89
2022-09-17T05:43:17.286Z,24.86
2022-09-17T05:45:43.620Z,24.86
2022-09-17T06:54:14.238Z,24.67
2022-09-17T06:56:40.603Z,24.43
2022-09-17T06:59:06.945Z,24.46
2022-09-17T07:01:33.365Z,24.54
2022-09-17T07:03:59.639Z,24.63
2022-09-17T07:06:25.973Z,24.64
2022-09-17T07:08:52.311Z,24.74
2022-09-17T07:11:18.677Z,24.74
2022-09-17T07:13:45.019Z,24.76
2022-09-17T07:16:11.430Z,24.72
2022-09-17T07:18:37.695Z,24.72
2022-09-17T07:21:04.065Z,24.88
2022-09-17T07:23:30.402Z,24.88
2022-09-17T07:25:56.741Z,24.92
2022-09-17T07:28:23.083Z,24.92
2022-09-17T07:30:49.450Z,24.88
2022-09-17T07:33:15.761Z,24.90
2022-09-17T07:35:42.138Z,24.94
2022-09-17T07:38:08.592Z,24.94
2022-09-17T07:40:34.958Z,24.96
2022-09-17T07:43:01.259Z,24.94
2022-09-17T07:45:27.595Z,24.92
2022-09-17T07:47:53.935Z,24.92
2022-09-17T07:50:20.306Z,24.91
2022-09-17T07:52:46.636Z,24.91
2022-09-17T07:55:13.004Z,24.91
2022-09-17T07:57:39.340Z,24.92
2022-09-17T08:00:05.670Z,24.92
2022-09-17T08:02:32.128Z,24.92
2022-09-17T08:04:58.345Z,24.93
2022-09-17T08:07:25.732Z,24.95
2022-09-17T08:09:52.067Z,24.96
2022-09-17T08:12:18.411Z,24.98
2022-09-17T08:14:44.740Z,25.00
2022-09-17T08:17:11.080Z,25.06
2022-09-17T08:19:37.407Z,25.06
2022-09-17T08:22:03.754Z,24.99
2022-09-17T08:24:30.083Z,25.02
2022-09-17T08:26:56.452Z,25.06
2022-09-17T08:29:22.827Z,25.05
2022-09-17T08:31:49.217Z,25.02
2022-09-17T08:34:15.514Z,25.08
2022-09-17T08:36:41.857Z,25.07
2022-09-17T08:39:08.195Z,25.08
2022-09-17T08:41:34.581Z,25.08
2022-09-17T08:44:00.915Z,25.11
2022-09-17T08:46:27.266Z,25.10
2022-09-17T08:48:53.582Z,25.12
2022-09-17T08:51:19.923Z,25.13
2022-09-17T08:53:46.357Z,25.14
2022-09-17T09:14:54.927Z,24.99
2022-09-17T09:17:21.326Z,25.11
2022-09-17T09:19:47.671Z,25.11
2022-09-17T09:22:14.004Z,25.11
2022-09-17T09:24:40.341Z,25.14
2022-09-17T09:27:06.699Z,25.14
2022-09-17T09:29:33.040Z,25.17
2022-09-17T09:31:59.379Z,25.17
2022-09-17T09:34:25.724Z,25.18
2022-09-17T09:36:52.055Z,25.16
2022-09-17T09:39:18.401Z,25.17
2022-09-17T09:41:44.732Z,25.17
2022-09-17T09:44:11.086Z,25.16
2022-09-17T09:46:37.478Z,25.17
2022-09-17T09:49:03.780Z,25.18
2022-09-17T09:51:30.113Z,25.16
2022-09-17T09:53:56.451Z,25.17
2022-09-17T09:56:22.785Z,25.15
2022-09-17T09:58:49.135Z,25.16
2022-09-17T10:01:15.535Z,25.15
2022-09-17T10:03:41.813Z,25.16
2022-09-17T10:06:08.163Z,25.15
2022-09-17T10:08:34.500Z,25.11
2022-09-17T10:11:00.845Z,25.11
2022-09-17T10:13:27.181Z,25.10
2022-09-17T10:15:53.575Z,25.08
2022-09-17T10:18:19.866Z,25.05
2022-09-17T10:20:46.204Z,25.06
2022-09-17T10:23:12.547Z,25.09
2022-09-17T10:25:38.887Z,25.06
2022-09-17T10:28:05.224Z,25.07
2022-09-17T10:30:31.564Z,25.07
2022-09-17T10:32:57.906Z,25.05
2022-09-17T10:35:24.236Z,25.05
2022-09-17T10:37:50.581Z,25.04
2022-09-17T10:40:16.988Z,25.05
2022-09-17T10:42:43.298Z,25.04
2022-09-17T10:45:09.633Z,25.05
2022-09-17T10:47:35.977Z,25.05
2022-09-17T10:50:04.385Z,25.03
2022-09-17T10:52:28.663Z,25.01
2022-09-17T10:54:55.026Z,25.02
2022-09-17T10:57:21.372Z,25.02
2022-09-17T10:59:47.703Z,25.02
2022-09-17T11:02:14.249Z,25.02
2022-09-17T11:04:40.378Z,25.04
2022-09-17T11:07:06.724Z,25.06
2022-09-17T11:09:33.059Z,25.05
2022-09-17T11:11:59.407Z,25.05
2022-09-17T11:14:25.737Z,25.08
2022-09-17T11:16:52.070Z,25.06
2022-09-17T11:19:18.411Z,25.07
2022-09-17T11:21:44.750Z,25.04
2022-09-17T11:24:11.150Z,25.05
2022-09-17T11:26:37.488Z,25.10
2022-09-17T11:29:03.824Z,25.10
2022-09-17T11:31:30.210Z,25.08
2022-09-17T11:33:56.504Z,25.10
2022-09-17T11:36:22.843Z,25.07
2022-09-17T11:38:49.221Z,25.08
2022-09-17T11:41:15.526Z,25.12
2022-09-17T11:43:41.865Z,25.14
2022-09-17T11:46:08.253Z,25.12
2022-09-17T11:48:34.547Z,25.11
2022-09-17T11:51:00.888Z,25.14
2022-09-17T11:53:27.222Z,25.12
2022-09-17T11:55:53.597Z,25.12
2022-09-17T11:58:19.925Z,25.12
2022-09-17T12:00:46.265Z,25.12
2022-09-17T12:03:12.657Z,25.13
2022-09-17T12:05:38.941Z,25.13
2022-09-17T12:08:05.278Z,25.12
2022-09-17T12:10:31.621Z,25.13
2022-09-17T12:12:57.953Z,25.15
2022-09-17T12:15:24.300Z,25.17
2022-09-17T12:17:50.689Z,25.12
2022-09-17T12:20:17.025Z,25.16
2022-09-17T12:22:43.369Z,25.11
2022-09-17T12:25:09.709Z,25.11
2022-09-17T12:27:36.042Z,25.12
2022-09-17T12:30:02.396Z,25.13
2022-09-17T12:32:28.756Z,25.12
2022-09-17T12:34:55.094Z,25.11
2022-09-17T12:37:21.424Z,25.11
2022-09-17T12:39:47.767Z,25.10
2022-09-17T12:42:14.105Z,25.08
2022-09-17T12:44:40.448Z,25.06
2022-09-17T12:47:06.791Z,25.07
2022-09-17T12:49:33.160Z,25.08
2022-09-17T12:51:59.490Z,25.10
2022-09-17T12:54:25.833Z,25.15
2022-09-17T12:56:52.168Z,25.14
2022-09-17T12:59:18.516Z,25.11
2022-09-17T13:01:44.947Z,25.08
2022-09-17T13:04:11.225Z,25.10
2022-09-17T13:06:37.592Z,25.10
2022-09-17T13:09:03.926Z,25.10
2022-09-17T13:11:30.260Z,25.13
2022-09-17T13:13:56.608Z,25.18
2022-09-17T13:16:22.982Z,25.19
2022-09-17T13:19:05.712Z,25.14
2022-09-17T13:21:15.630Z,25.12
2022-09-17T13:23:41.975Z,25.14
2022-09-17T13:26:08.340Z,25.09
2022-09-17T13:28:34.724Z,25.10
2022-09-17T13:31:01.107Z,25.08
2022-09-17T13:33:27.401Z,25.07
2022-09-17T13:35:53.748Z,25.08
2022-09-17T13:38:23.089Z,25.08
2022-09-17T13:40:46.420Z,25.05
2022-09-17T13:43:12.759Z,25.07
2022-09-17T13:45:39.093Z,25.07
2022-09-17T13:48:05.429Z,25.07
2022-09-17T13:50:31.766Z,25.06
2022-09-17T13:52:58.108Z,25.04
2022-09-17T13:55:24.448Z,25.05
2022-09-17T13:57:50.821Z,25.03
2022-09-17T14:00:17.152Z,25.07
2022-09-17T14:02:43.541Z,25.05
2022-09-17T14:05:09.847Z,25.06
2022-09-17T14:07:36.230Z,25.04
2022-09-17T14:10:02.564Z,25.13
2022-09-17T14:12:28.901Z,25.20
2022-09-17T14:14:55.236Z,25.22
2022-09-17T14:17:21.582Z,25.21
2022-09-17T14:19:51.284Z,25.21
2022-09-17T14:22:14.265Z,25.21
2022-09-17T14:24:40.600Z,25.23
2022-09-17T14:27:06.944Z,25.21
2022-09-17T14:29:33.314Z,25.20
2022-09-17T14:31:59.659Z,25.21
2022-09-17T14:34:25.987Z,25.20
2022-09-17T14:36:52.337Z,25.20
2022-09-17T14:39:18.667Z,25.20
2022-09-17T14:41:45.014Z,25.19
2022-09-17T14:44:11.347Z,25.19
2022-09-17T14:46:37.767Z,25.19
2022-09-17T14:49:04.059Z,25.17
2022-09-17T14:51:30.401Z,25.18
2022-09-17T14:53:56.729Z,25.17
2022-09-17T14:56:23.071Z,25.19
2022-09-17T14:58:49.406Z,25.17
2022-09-17T15:01:15.792Z,25.17
2022-09-17T15:03:42.086Z,25.16
2022-09-17T15:06:08.427Z,25.18
2022-09-17T15:08:34.762Z,25.16
2022-09-17T15:11:01.103Z,25.17
2022-09-17T15:13:27.446Z,25.17
2022-09-17T15:15:53.821Z,25.18
2022-09-17T15:18:20.185Z,25.17
2022-09-17T15:20:46.530Z,25.15
2022-09-17T15:23:12.869Z,25.14
2022-09-17T15:25:39.204Z,25.15
2022-09-17T15:28:05.543Z,25.13
2022-09-17T15:30:31.889Z,25.16
2022-09-17T15:32:58.228Z,25.17
2022-09-17T15:35:24.563Z,25.15
2022-09-17T15:38:18.600Z,25.20
2022-09-17T15:40:17.338Z,25.19
2022-09-17T15:42:43.576Z,25.21
2022-09-17T15:45:09.912Z,25.19
2022-09-17T15:47:36.278Z,25.20
2022-09-17T15:50:02.715Z,25.20
2022-09-17T15:52:29.001Z,25.22
2022-09-17T15:54:55.348Z,25.24
2022-09-17T15:57:21.682Z,25.19
2022-09-17T15:59:48.021Z,25.20
2022-09-17T16:02:14.437Z,25.19
2022-09-17T16:04:40.695Z,25.20
2022-09-17T16:07:07.033Z,25.19
2022-09-17T16:09:33.372Z,25.18
2022-09-17T16:11:59.717Z,25.18
2022-09-17T16:14:26.057Z,25.16
2022-09-17T16:16:52.393Z,25.16
2022-09-17T16:19:18.729Z,25.15
2022-09-17T16:21:45.073Z,25.17
2022-09-17T16:24:11.510Z,25.15
2022-09-17T16:26:37.840Z,25.18
2022-09-17T16:29:04.188Z,25.17
2022-09-17T16:31:30.622Z,25.15
2022-09-17T16:33:56.902Z,25.16
2022-09-17T16:36:23.232Z,25.14
2022-09-17T16:38:49.578Z,25.14
2022-09-17T16:41:15.923Z,25.14
2022-09-17T16:43:42.266Z,25.15
2022-09-17T16:46:08.670Z,25.15
2022-09-17T16:48:34.941Z,25.14
2022-09-17T16:51:01.280Z,25.13
2022-09-17T16:53:27.620Z,25.12
2022-09-17T16:55:53.983Z,25.10
2022-09-17T16:58:20.328Z,25.11
2022-09-17T17:00:46.748Z,25.14
2022-09-17T17:03:13.103Z,25.11
2022-09-17T17:05:39.359Z,25.09
2022-09-17T17:10:50.985Z,25.11
2022-09-17T17:13:17.330Z,25.11
2022-09-17T17:15:43.722Z,25.11
2022-09-17T17:18:10.028Z,25.11
2022-09-17T17:20:36.409Z,25.09
2022-09-17T17:23:02.742Z,25.10
2022-09-17T17:25:29.048Z,25.07
2022-09-17T17:27:55.402Z,25.07
2022-09-17T17:30:21.750Z,25.07
2022-09-17T17:32:48.100Z,25.06
2022-09-17T17:35:14.449Z,25.05
2022-09-17T17:37:40.793Z,25.05
2022-09-17T17:40:07.227Z,25.04
2022-09-17T17:42:33.498Z,25.04
2022-09-17T17:44:59.841Z,25.05
2022-09-17T17:47:26.186Z,25.05
2022-09-17T17:49:52.541Z,25.04
2022-09-17T17:52:18.874Z,25.04
2022-09-17T17:54:45.255Z,25.05
2022-09-17T17:57:11.593Z,25.04
2022-09-17T17:59:37.942Z,25.03
2022-09-17T18:02:04.447Z,25.03
2022-09-17T18:04:30.630Z,25.02
2022-09-17T18:06:56.968Z,25.02
2022-09-17T18:09:23.333Z,25.00
2022-09-17T18:11:49.672Z,25.01
2022-09-17T18:14:16.028Z,25.01
2022-09-17T18:16:42.370Z,25.02
2022-09-17T18:19:08.717Z,25.00
2022-09-17T18:21:35.053Z,25.01
2022-09-17T18:24:01.390Z,24.99
2022-09-17T18:26:27.794Z,25.00
2022-09-17T18:28:54.132Z,25.00
2022-09-17T18:31:20.520Z,25.00
2022-09-17T18:33:46.823Z,25.02
2022-09-17T18:36:13.184Z,24.99
2022-09-17T18:38:39.572Z,24.97
2022-09-17T18:41:05.885Z,24.95
2022-09-17T18:43:32.231Z,24.98
2022-09-17T18:45:58.563Z,24.98
2022-09-17T18:48:24.929Z,24.98
2022-09-17T18:50:52.475Z,24.97
2022-09-17T18:53:17.644Z,24.97
2022-09-17T18:55:43.982Z,24.95
2022-09-17T18:58:10.330Z,24.97
2022-09-17T19:00:36.719Z,24.95
2022-09-17T19:03:05.885Z,24.95
2022-09-17T19:05:32.225Z,24.96
2022-09-17T19:07:58.574Z,24.95
2022-09-17T19:10:24.921Z,24.93
2022-09-17T19:12:51.268Z,24.95
2022-09-17T19:15:17.598Z,24.90
2022-09-17T19:17:43.980Z,24.94
2022-09-17T19:20:10.345Z,24.92
2022-09-17T19:22:36.696Z,24.93
2022-09-17T19:25:03.037Z,24.91
2022-09-17T19:27:29.394Z,24.91
2022-09-17T19:29:55.736Z,24.92
2022-09-17T19:32:22.087Z,24.93
2022-09-17T19:34:48.437Z,24.91
2022-09-17T19:37:14.782Z,24.90
2022-09-17T19:39:41.147Z,24.94
2022-09-17T19:42:07.489Z,24.90
2022-09-17T19:44:33.868Z,24.92
2022-09-17T19:47:00.204Z,24.91
2022-09-17T19:49:26.553Z,24.91
2022-09-17T19:51:52.906Z,24.91
2022-09-17T19:54:19.249Z,24.91
2022-09-17T19:56:45.698Z,24.89
2022-09-17T19:59:12.078Z,24.90
2022-09-17T20:01:38.468Z,24.84
2022-09-17T20:04:04.775Z,24.89
2022-09-17T20:06:31.119Z,24.89
2022-09-17T20:08:57.465Z,24.89
2022-09-17T20:11:23.801Z,24.88
2022-09-17T20:13:50.140Z,24.86
2022-09-17T20:16:16.507Z,24.87
2022-09-17T20:18:42.820Z,24.89
2022-09-17T20:21:09.166Z,24.89
2022-09-17T20:23:35.516Z,24.87
2022-09-17T20:26:01.854Z,24.86
2022-09-17T20:28:28.194Z,24.85
2022-09-17T20:30:54.588Z,24.86
2022-09-17T20:33:24.095Z,24.87
2022-09-17T20:35:47.261Z,24.83
2022-09-17T20:40:39.940Z,24.87
2022-09-17T20:43:06.290Z,24.86
2022-09-17T20:45:32.633Z,24.84
2022-09-17T20:47:58.973Z,24.84
2022-09-17T20:50:25.310Z,24.84
2022-09-17T20:52:51.653Z,24.84
2022-09-17T20:55:17.999Z,24.83
2022-09-17T20:57:44.347Z,24.84
2022-09-17T21:00:10.690Z,24.84
2022-09-17T21:02:37.027Z,24.84
2022-09-17T21:05:03.389Z,24.85
2022-09-17T21:07:29.734Z,24.87
2022-09-17T21:09:56.071Z,24.83
2022-09-17T21:12:27.378Z,24.82
2022-09-17T21:14:48.799Z,24.82
2022-09-17T21:17:15.145Z,24.81
2022-09-17T21:19:41.477Z,24.83
2022-09-17T21:22:07.825Z,24.81
2022-09-17T21:24:34.170Z,24.83
2022-09-17T21:27:00.519Z,24.82
2022-09-17T21:29:26.865Z,24.81
2022-09-17T21:31:53.258Z,24.82
2022-09-17T21:34:19.562Z,24.84
2022-09-17T21:36:45.939Z,24.80
2022-09-17T21:39:12.289Z,24.78
2022-09-17T21:41:42.324Z,24.78
2022-09-17T21:44:04.978Z,24.82
2022-09-17T21:46:31.359Z,24.79
2022-09-17T21:48:57.669Z,24.77
2022-09-17T21:51:24.025Z,24.79
2022-09-17T21:53:50.379Z,24.80
2022-09-17T21:56:16.724Z,24.82
2022-09-17T21:58:43.073Z,24.79
2022-09-17T22:01:09.415Z,24.78
2022-09-17T22:03:35.752Z,24.82
2022-09-17T22:06:02.099Z,24.81
2022-09-17T22:08:28.463Z,24.81
2022-09-17T22:10:54.794Z,24.76
2022-09-17T22:13:21.140Z,24.78
2022-09-17T22:15:47.527Z,24.82
2022-09-17T22:18:13.825Z,24.80
2022-09-17T22:20:40.181Z,24.78
2022-09-17T22:23:06.530Z,24.80
2022-09-17T22:25:32.883Z,24.79
2022-09-17T22:28:19.936Z,24.79
2022-09-17T22:30:25.573Z,24.82
2022-09-17T22:32:51.909Z,24.82
2022-09-17T22:35:18.266Z,24.81
2022-09-17T22:37:44.616Z,24.79
2022-09-17T22:40:10.996Z,24.79
2022-09-17T22:42:37.312Z,24.77
2022-09-17T22:45:03.701Z,24.78
2022-09-17T22:47:30.042Z,24.76
2022-09-17T22:49:56.393Z,24.77
2022-09-17T22:52:22.744Z,24.78
2022-09-17T22:54:49.093Z,24.78
2022-09-17T22:57:15.436Z,24.78
2022-09-17T22:59:41.776Z,24.75
2022-09-17T23:02:08.191Z,24.76
2022-09-17T23:04:34.482Z,24.76
2022-09-17T23:07:00.827Z,24.76
2022-09-17T23:09:27.178Z,24.75
2022-09-17T23:11:53.531Z,24.77
2022-09-17T23:14:19.877Z,24.76
2022-09-17T23:16:46.221Z,24.78
2022-09-17T23:19:12.560Z,24.76
2022-09-17T23:21:38.913Z,24.77
2022-09-17T23:24:05.288Z,24.77
2022-09-17T23:26:31.623Z,24.77
2022-09-17T23:29:01.237Z,24.76
2022-09-17T23:31:24.372Z,24.76
2022-09-17T23:33:50.704Z,24.76
2022-09-17T23:36:17.033Z,24.75
2022-09-17T23:38:43.373Z,24.77
2022-09-17T23:41:09.719Z,24.75
2022-09-17T23:43:36.057Z,24.78
2022-09-17T23:46:02.418Z,24.76
2022-09-17T23:48:28.744Z,24.76
2022-09-17T23:50:55.085Z,24.76
2022-09-17T23:53:21.432Z,24.76
2022-09-17T23:55:47.773Z,24.76
2022-09-17T23:58:14.119Z,24.77
